createdAt,value
2023-11-19T00:01:24.819Z,99829.44
2023-11-19T00:03:27.899Z,99823.19
2023-11-19T00:05:31.304Z,99819.31
2023-11-19T00:07:35.680Z,99819.84
2023-11-19T00:09:40.884Z,99816.09
2023-11-19T00:13:56.814Z,99816.91
2023-11-19T00:15:59.836Z,99828.56
2023-11-19T00:18:06.181Z,99827.03
2023-11-19T00:20:10.217Z,99825.22
2023-11-19T00:22:13.226Z,99828.28
2023-11-19T00:24:19.237Z,99817.19
2023-11-19T00:26:23.645Z,99827.88
2023-11-19T00:28:30.056Z,99833.16
2023-11-19T00:30:33.145Z,99831.88
2023-11-19T00:32:36.409Z,99838.56
2023-11-19T00:34:39.708Z,99841.34
2023-11-19T00:36:42.678Z,99828.44
2023-11-19T00:38:45.635Z,99819.28
2023-11-19T00:40:48.738Z,99814.16
2023-11-19T00:42:59.919Z,99817.75
2023-11-19T00:45:04.717Z,99811.50
2023-11-19T00:47:07.912Z,99805.13
2023-11-19T00:49:13.149Z,99808.19
2023-11-19T00:51:16.360Z,99803.75
2023-11-19T00:53:19.396Z,99811.78
2023-11-19T00:55:22.479Z,99813.16
2023-11-19T00:57:25.559Z,99803.75
2023-11-19T00:59:30.626Z,99803.88
2023-11-19T01:01:33.595Z,99795.56
2023-11-19T01:03:36.735Z,99787.91
2023-11-19T01:05:39.784Z,99788.22
2023-11-19T01:07:43.128Z,99792.38
2023-11-19T01:09:46.270Z,99771.84
2023-11-19T01:11:49.427Z,99775.97
2023-11-19T01:13:53.026Z,99775.03
2023-11-19T01:15:58.086Z,99770.84
2023-11-19T01:18:01.117Z,99758.22
2023-11-19T01:20:07.326Z,99760.44
2023-11-19T01:22:10.280Z,99734.63
2023-11-19T01:24:14.807Z,99741.84
2023-11-19T01:26:18.300Z,99745.03
2023-11-19T01:28:22.171Z,99741.28
2023-11-19T01:30:25.446Z,99741.41
2023-11-19T01:32:29.988Z,99732.81
2023-11-19T01:34:33.022Z,99727.69
2023-11-19T01:36:36.299Z,99729.63
2023-11-19T01:38:39.425Z,99721.19
2023-11-19T01:40:42.462Z,99713.28
2023-11-19T01:42:45.434Z,99702.06
2023-11-19T01:44:59.363Z,99703.28
2023-11-19T01:47:03.066Z,99693.53
2023-11-19T01:49:09.057Z,99691.59
2023-11-19T01:51:13.795Z,99689.66
2023-11-19T01:53:16.805Z,99684.09
2023-11-19T01:55:21.149Z,99667.75
2023-11-19T01:57:25.428Z,99655.66
2023-11-19T01:59:28.954Z,99649.69
2023-11-19T02:01:34.086Z,99650.09
2023-11-19T02:03:37.248Z,99651.22
2023-11-19T02:05:42.803Z,99637.34
2023-11-19T02:07:47.656Z,99629.97
2023-11-19T02:09:50.775Z,99616.38
2023-11-19T02:11:55.356Z,99610.25
2023-11-19T02:13:58.924Z,99613.56
2023-11-19T02:16:03.542Z,99608.41
2023-11-19T02:18:23.634Z,99611.84
2023-11-19T02:20:27.804Z,99618.38
2023-11-19T02:22:32.543Z,99613.47
2023-11-19T02:24:35.764Z,99623.44
2023-11-19T02:26:45.790Z,99605.72
2023-11-19T02:28:50.187Z,99589.78
2023-11-19T02:30:54.653Z,99590.22
2023-11-19T02:33:03.457Z,99586.47
2023-11-19T02:35:08.213Z,99576.28
2023-11-19T02:37:11.431Z,99563.16
2023-11-19T02:39:14.905Z,99554.00
2023-11-19T02:41:17.894Z,99560.19
2023-11-19T02:43:21.961Z,99562.75
2023-11-19T02:45:27.630Z,99559.13
2023-11-19T02:47:31.858Z,99549.56
2023-11-19T02:49:34.984Z,99550.31
2023-11-19T02:51:37.974Z,99552.91
2023-11-19T02:53:42.601Z,99556.22
2023-11-19T02:55:50.188Z,99553.31
2023-11-19T02:57:55.008Z,99553.16
2023-11-19T02:59:58.206Z,99554.16
2023-11-19T03:02:02.768Z,99549.94
2023-11-19T03:04:06.339Z,99546.09
2023-11-19T03:06:10.893Z,99539.03
2023-11-19T03:08:23.286Z,99528.00
2023-11-19T03:10:26.620Z,99519.72
2023-11-19T03:12:29.905Z,99512.50
2023-11-19T03:14:36.013Z,99515.66
2023-11-19T03:16:39.027Z,99503.84
2023-11-19T03:18:43.900Z,99508.44
2023-11-19T03:20:48.140Z,99522.03
2023-11-19T03:22:53.040Z,99519.22
2023-11-19T03:24:56.075Z,99506.47
2023-11-19T03:26:59.000Z,99516.59
2023-11-19T03:29:02.824Z,99515.47
2023-11-19T03:31:10.090Z,99517.50
2023-11-19T03:33:13.413Z,99508.22
2023-11-19T03:35:17.832Z,99498.97
2023-11-19T03:37:21.083Z,99498.50
2023-11-19T03:39:26.353Z,99490.56
2023-11-19T03:41:29.320Z,99485.31
2023-11-19T03:43:33.176Z,99491.41
2023-11-19T03:45:37.723Z,99479.16
2023-11-19T03:47:41.059Z,99478.31
2023-11-19T03:49:45.560Z,99473.56
2023-11-19T03:51:50.080Z,99469.56
2023-11-19T03:53:54.063Z,99468.88
2023-11-19T03:55:57.442Z,99456.19
2023-11-19T03:58:00.563Z,99453.28
2023-11-19T04:00:10.489Z,99454.91
2023-11-19T04:02:17.182Z,99457.41
2023-11-19T04:04:20.269Z,99465.56
2023-11-19T04:06:23.372Z,99473.19
2023-11-19T04:08:27.764Z,99485.91
2023-11-19T04:10:30.834Z,99493.00
2023-11-19T04:12:34.064Z,99491.59
2023-11-19T04:14:38.145Z,99479.06
2023-11-19T04:16:41.184Z,99472.78
2023-11-19T04:18:44.486Z,99466.00
2023-11-19T04:20:47.468Z,99460.34
2023-11-19T04:22:52.572Z,99453.56
2023-11-19T04:24:57.445Z,99432.84
2023-11-19T04:27:00.453Z,99423.41
2023-11-19T04:29:03.423Z,99407.41
2023-11-19T04:31:07.696Z,99399.81
2023-11-19T04:33:10.791Z,99387.13
2023-11-19T04:35:13.745Z,99395.28
2023-11-19T04:37:16.929Z,99393.84
2023-11-19T04:39:20.512Z,99390.44
2023-11-19T04:41:24.876Z,99386.28
2023-11-19T04:43:28.166Z,99389.09
2023-11-19T04:45:31.236Z,99381.84
2023-11-19T04:47:34.559Z,99379.41
2023-11-19T04:49:41.278Z,99376.63
2023-11-19T04:51:45.670Z,99375.63
2023-11-19T04:53:48.685Z,99382.56
2023-11-19T04:55:51.793Z,99386.91
2023-11-19T04:57:57.569Z,99380.00
2023-11-19T05:00:00.658Z,99361.03
2023-11-19T05:02:03.555Z,99363.31
2023-11-19T05:04:06.860Z,99358.25
2023-11-19T05:06:10.333Z,99350.03
2023-11-19T05:08:13.305Z,99349.56
2023-11-19T05:10:16.613Z,99351.91
2023-11-19T05:12:20.058Z,99339.53
2023-11-19T05:14:25.869Z,99336.50
2023-11-19T05:16:28.966Z,99337.19
2023-11-19T05:18:31.903Z,99334.25
2023-11-19T05:20:34.855Z,99323.31
2023-11-19T05:22:38.801Z,99311.81
2023-11-19T05:24:42.426Z,99306.66
2023-11-19T05:26:45.517Z,99301.38
2023-11-19T05:28:49.014Z,99310.13
2023-11-19T05:30:53.533Z,99312.97
2023-11-19T05:32:56.607Z,99306.19
2023-11-19T05:34:59.527Z,99320.28
2023-11-19T05:37:02.643Z,99340.13
2023-11-19T05:39:06.404Z,99346.19
2023-11-19T05:41:09.764Z,99336.00
2023-11-19T05:43:12.898Z,99333.69
2023-11-19T05:45:16.106Z,99329.56
2023-11-19T05:47:20.842Z,99331.03
2023-11-19T05:49:24.120Z,99329.50
2023-11-19T05:51:27.226Z,99327.66
2023-11-19T05:53:30.823Z,99312.97
2023-11-19T05:55:35.765Z,99306.56
2023-11-19T05:57:47.058Z,99307.59
2023-11-19T05:59:51.206Z,99298.63
2023-11-19T06:01:54.472Z,99296.00
2023-11-19T06:03:58.894Z,99298.47
2023-11-19T06:06:01.998Z,99295.19
2023-11-19T06:08:05.114Z,99297.81
2023-11-19T06:10:11.372Z,99292.00
2023-11-19T06:12:15.584Z,99288.25
2023-11-19T06:14:18.749Z,99281.44
2023-11-19T06:16:21.927Z,99268.88
2023-11-19T06:18:25.205Z,99252.06
2023-11-19T06:20:43.218Z,99246.44
2023-11-19T06:22:47.220Z,99246.44
2023-11-19T06:24:50.206Z,99233.41
2023-11-19T06:26:53.260Z,99236.91
2023-11-19T06:28:56.232Z,99248.66
2023-11-19T06:30:59.603Z,99249.63
2023-11-19T06:33:02.963Z,99248.13
2023-11-19T06:35:07.133Z,99242.34
2023-11-19T06:37:11.614Z,99242.22
2023-11-19T06:39:14.706Z,99243.22
2023-11-19T06:41:17.817Z,99236.28
2023-11-19T06:43:20.963Z,99228.19
2023-11-19T06:45:23.923Z,99215.97
2023-11-19T06:47:28.594Z,99228.19
2023-11-19T06:49:31.511Z,99229.19
2023-11-19T06:51:35.151Z,99222.09
2023-11-19T06:53:41.242Z,99220.59
2023-11-19T06:55:44.262Z,99213.50
2023-11-19T06:57:47.378Z,99208.53
2023-11-19T06:59:50.464Z,99201.44
2023-11-19T07:01:53.606Z,99200.09
2023-11-19T07:03:59.553Z,99202.25
2023-11-19T07:06:02.665Z,99204.25
2023-11-19T07:08:08.632Z,99200.78
2023-11-19T07:10:13.270Z,99203.91
2023-11-19T07:12:16.928Z,99208.53
2023-11-19T07:14:20.338Z,99213.00
2023-11-19T07:16:23.446Z,99208.84
2023-11-19T07:18:28.043Z,99205.22
2023-11-19T07:20:31.013Z,99189.66
2023-11-19T07:22:34.140Z,99203.56
2023-11-19T07:24:37.216Z,99202.25
2023-11-19T07:26:44.990Z,99194.47
2023-11-19T07:28:48.114Z,99185.88
2023-11-19T07:30:51.272Z,99174.94
2023-11-19T07:32:54.566Z,99182.88
2023-11-19T07:34:57.879Z,99168.16
2023-11-19T07:37:03.952Z,99154.91
2023-11-19T07:39:07.099Z,99142.34
2023-11-19T07:41:14.478Z,99146.47
2023-11-19T07:43:19.168Z,99147.31
2023-11-19T07:45:22.617Z,99143.28
2023-11-19T07:47:25.563Z,99138.84
2023-11-19T07:49:28.835Z,99135.56
2023-11-19T07:51:31.768Z,99139.66
2023-11-19T07:53:35.061Z,99122.81
2023-11-19T07:55:38.084Z,99133.53
2023-11-19T07:57:45.692Z,99139.94
2023-11-19T07:59:50.323Z,99134.16
2023-11-19T08:01:53.354Z,99132.38
2023-11-19T08:06:04.202Z,99124.41
2023-11-19T08:08:07.586Z,99125.19
2023-11-19T08:10:11.411Z,99115.09
2023-11-19T08:12:16.064Z,99109.50
2023-11-19T08:14:19.104Z,99109.66
2023-11-19T08:16:23.612Z,99113.91
2023-11-19T08:18:26.757Z,99099.84
2023-11-19T08:20:29.756Z,99107.44
2023-11-19T08:22:33.116Z,99116.50
2023-11-19T08:24:36.045Z,99112.69
2023-11-19T08:26:39.216Z,99114.19
2023-11-19T08:28:42.625Z,99088.66
2023-11-19T08:30:46.161Z,99114.50
2023-11-19T08:32:50.755Z,99114.47
2023-11-19T08:34:54.086Z,99119.41
2023-11-19T08:36:57.298Z,99117.78
2023-11-19T08:39:00.258Z,99103.38
2023-11-19T08:41:03.563Z,99093.53
2023-11-19T08:43:07.916Z,99087.56
2023-11-19T08:45:12.259Z,99085.88
2023-11-19T08:47:15.386Z,99086.41
2023-11-19T08:49:20.042Z,99092.13
2023-11-19T08:51:24.319Z,99085.81
2023-11-19T08:53:27.270Z,99082.22
2023-11-19T08:55:30.298Z,99069.84
2023-11-19T08:57:34.198Z,99077.09
2023-11-19T08:59:39.189Z,99087.31
2023-11-19T09:01:42.546Z,99082.16
2023-11-19T09:03:45.807Z,99069.75
2023-11-19T09:05:50.279Z,99073.97
2023-11-19T09:07:54.007Z,99056.16
2023-11-19T09:09:56.966Z,99058.25
2023-11-19T09:11:59.950Z,99050.69
2023-11-19T09:14:02.930Z,99043.38
2023-11-19T09:16:06.805Z,99039.28
2023-11-19T09:18:09.771Z,99045.88
2023-11-19T09:20:16.790Z,99045.34
2023-11-19T09:22:21.396Z,99042.56
2023-11-19T09:24:24.375Z,99038.19
2023-11-19T09:26:27.279Z,99030.41
2023-11-19T09:28:30.307Z,99026.00
2023-11-19T09:30:35.608Z,99016.41
2023-11-19T09:32:39.214Z,99016.25
2023-11-19T09:34:42.233Z,99016.50
2023-11-19T09:36:46.401Z,99009.47
2023-11-19T09:38:50.764Z,99002.59
2023-11-19T09:40:54.395Z,99006.88
2023-11-19T09:42:57.601Z,98992.16
2023-11-19T09:45:04.987Z,98990.97
2023-11-19T09:47:09.757Z,98976.56
2023-11-19T09:49:14.199Z,98964.28
2023-11-19T09:51:17.642Z,98972.41
2023-11-19T09:53:22.103Z,98971.25
2023-11-19T09:55:26.681Z,98962.94
2023-11-19T09:57:32.585Z,98955.69
2023-11-19T09:59:35.835Z,98941.56
2023-11-19T10:01:39.927Z,98947.84
2023-11-19T10:03:45.628Z,98938.41
2023-11-19T10:05:49.152Z,98937.97
2023-11-19T10:08:14.561Z,98935.22
2023-11-19T10:11:07.010Z,98937.25
2023-11-19T10:13:47.644Z,98920.53
2023-11-19T10:19:17.413Z,98914.88
2023-11-19T10:22:14.844Z,98919.09
2023-11-19T10:25:07.311Z,98903.28
2023-11-19T10:27:28.736Z,98898.88
2023-11-19T10:29:32.542Z,98897.16
2023-11-19T10:31:35.564Z,98883.00
2023-11-19T10:33:38.470Z,98885.09
2023-11-19T10:38:02.323Z,98881.44
2023-11-19T10:40:06.996Z,98878.75
2023-11-19T10:42:18.246Z,98867.59
2023-11-19T10:44:37.855Z,98860.00
2023-11-19T10:46:42.275Z,98860.84
2023-11-19T10:48:46.023Z,98856.25
2023-11-19T10:50:54.662Z,98863.03
2023-11-19T10:53:01.755Z,98857.47
2023-11-19T10:55:09.673Z,98841.06
2023-11-19T10:57:20.952Z,98829.13
2023-11-19T10:59:27.890Z,98814.28
2023-11-19T11:01:42.248Z,98815.03
2023-11-19T11:03:47.690Z,98803.34
2023-11-19T11:05:52.175Z,98805.19
2023-11-19T11:07:58.134Z,98808.66
2023-11-19T11:10:03.290Z,98790.31
2023-11-19T11:12:08.476Z,98788.94
2023-11-19T11:14:15.766Z,98779.91
2023-11-19T11:16:20.762Z,98779.72
2023-11-19T11:18:26.705Z,98780.34
2023-11-19T11:20:31.207Z,98784.75
2023-11-19T11:22:46.587Z,98782.47
2023-11-19T11:25:18.707Z,98785.50
2023-11-19T11:27:50.352Z,98784.38
2023-11-19T11:30:03.830Z,98779.53
2023-11-19T11:32:18.734Z,98768.22
2023-11-19T11:34:52.999Z,98753.78
2023-11-19T11:37:12.316Z,98764.09
2023-11-19T11:39:16.605Z,98755.22
2023-11-19T11:41:26.445Z,98755.03
2023-11-19T11:43:49.680Z,98763.66
2023-11-19T11:45:52.854Z,98752.38
2023-11-19T11:48:21.984Z,98756.19
2023-11-19T11:50:28.218Z,98758.66
2023-11-19T11:52:31.873Z,98752.53
2023-11-19T11:54:36.884Z,98746.84
2023-11-19T11:56:40.499Z,98749.88
2023-11-19T11:58:46.716Z,98744.56
2023-11-19T12:00:50.634Z,98733.19
2023-11-19T12:02:53.634Z,98743.47
2023-11-19T12:04:56.594Z,98745.13
2023-11-19T12:07:08.534Z,98742.41
2023-11-19T12:09:12.933Z,98731.22
2023-11-19T12:11:16.843Z,98732.09
2023-11-19T12:13:20.738Z,98735.31
2023-11-19T12:15:26.562Z,98721.88
2023-11-19T12:17:42.697Z,98712.75
2023-11-19T12:19:46.408Z,98701.50
2023-11-19T12:21:49.281Z,98686.16
2023-11-19T12:23:54.769Z,98692.63
2023-11-19T12:25:58.085Z,98700.25
2023-11-19T12:28:06.048Z,98698.78
2023-11-19T12:30:11.314Z,98689.47
2023-11-19T12:32:15.564Z,98695.41
2023-11-19T12:34:18.635Z,98693.91
2023-11-19T12:36:22.148Z,98688.22
2023-11-19T12:38:26.422Z,98694.66
2023-11-19T12:40:30.935Z,98698.06
2023-11-19T12:42:38.240Z,98684.66
2023-11-19T12:44:41.420Z,98682.59
2023-11-19T12:46:44.308Z,98684.44
2023-11-19T12:48:48.073Z,98680.34
2023-11-19T12:50:54.962Z,98675.66
2023-11-19T12:52:59.177Z,98661.19
2023-11-19T12:55:02.405Z,98668.31
2023-11-19T12:57:07.413Z,98665.84
2023-11-19T12:59:14.222Z,98678.19
2023-11-19T13:01:19.691Z,98669.38
2023-11-19T13:03:32.504Z,98665.13
2023-11-19T13:05:35.718Z,98667.56
2023-11-19T13:07:38.685Z,98660.66
2023-11-19T13:09:41.855Z,98648.78
2023-11-19T13:11:46.787Z,98641.25
2023-11-19T13:13:59.323Z,98633.31
2023-11-19T13:16:10.561Z,98638.00
2023-11-19T13:18:14.061Z,98629.81
2023-11-19T13:20:18.160Z,98615.31
2023-11-19T13:22:21.757Z,98621.88
2023-11-19T13:24:24.705Z,98620.06
2023-11-19T13:26:27.719Z,98613.28
2023-11-19T13:28:30.725Z,98605.31
2023-11-19T13:30:35.206Z,98615.16
2023-11-19T13:32:39.270Z,98623.75
2023-11-19T13:34:42.537Z,98624.38
2023-11-19T13:36:45.560Z,98612.72
2023-11-19T13:38:48.810Z,98602.53
2023-11-19T13:40:52.722Z,98604.31
2023-11-19T13:42:55.839Z,98616.00
2023-11-19T13:44:58.949Z,98619.69
2023-11-19T13:47:04.181Z,98602.94
2023-11-19T13:49:07.198Z,98599.47
2023-11-19T13:51:11.790Z,98597.56
2023-11-19T13:53:14.728Z,98595.97
2023-11-19T13:55:17.816Z,98582.47
2023-11-19T13:57:20.966Z,98601.47
2023-11-19T13:59:23.914Z,98589.19
2023-11-19T14:01:28.114Z,98592.28
2023-11-19T14:03:32.855Z,98588.63
2023-11-19T14:05:38.540Z,98585.53
2023-11-19T14:07:41.923Z,98583.91
2023-11-19T14:09:45.667Z,98575.31
2023-11-19T14:11:49.943Z,98593.53
2023-11-19T14:13:53.855Z,98579.41
2023-11-19T14:15:57.196Z,98576.13
2023-11-19T14:18:00.283Z,98573.47
2023-11-19T14:20:14.582Z,98577.75
2023-11-19T14:22:17.624Z,98581.03
2023-11-19T14:24:20.664Z,98595.38
2023-11-19T14:26:23.675Z,98582.47
2023-11-19T14:28:27.741Z,98578.16
2023-11-19T14:30:30.754Z,98583.91
2023-11-19T14:32:33.859Z,98580.03
2023-11-19T14:34:36.855Z,98577.16
2023-11-19T14:36:41.643Z,98578.19
2023-11-19T14:38:44.605Z,98583.69
2023-11-19T14:40:48.065Z,98577.75
2023-11-19T14:42:51.360Z,98588.84
2023-11-19T14:44:55.085Z,98576.13
2023-11-19T14:46:58.606Z,98573.06
2023-11-19T14:49:01.881Z,98573.88
2023-11-19T14:51:05.058Z,98581.88
2023-11-19T14:53:09.718Z,98580.00
2023-11-19T14:55:13.052Z,98582.47
2023-11-19T14:57:16.194Z,98583.28
2023-11-19T14:59:19.774Z,98577.34
2023-11-19T15:01:23.138Z,98591.09
2023-11-19T15:03:26.700Z,98590.88
2023-11-19T15:05:31.053Z,98612.38
2023-11-19T15:07:33.995Z,98600.31
2023-11-19T15:09:38.677Z,98614.63
2023-11-19T15:11:41.745Z,98601.94
2023-11-19T15:13:44.805Z,98611.97
2023-11-19T15:15:47.760Z,98607.22
2023-11-19T15:17:50.884Z,98606.84
2023-11-19T15:19:53.889Z,98597.81
2023-11-19T15:21:56.963Z,98600.69
2023-11-19T15:24:00.187Z,98603.16
2023-11-19T15:26:05.365Z,98606.44
2023-11-19T15:28:08.346Z,98599.88
2023-11-19T15:30:12.841Z,98608.06
2023-11-19T15:32:15.928Z,98604.59
2023-11-19T15:34:20.546Z,98610.91
2023-11-19T15:36:23.544Z,98612.78
2023-11-19T15:38:27.541Z,98602.53
2023-11-19T15:40:30.596Z,98581.88
2023-11-19T15:42:35.110Z,98574.06
2023-11-19T15:44:39.000Z,98589.22
2023-11-19T15:46:43.278Z,98585.53
2023-11-19T15:48:46.156Z,98588.38
2023-11-19T15:50:49.157Z,98601.09
2023-11-19T15:52:52.047Z,98602.72
2023-11-19T15:54:55.003Z,98593.13
2023-11-19T15:56:57.925Z,98604.38
2023-11-19T15:59:02.389Z,98607.44
2023-11-19T16:01:06.283Z,98607.03
2023-11-19T16:03:09.486Z,98608.06
2023-11-19T16:05:15.193Z,98603.13
2023-11-19T16:07:18.761Z,98595.34
2023-11-19T16:09:23.639Z,98605.56
2023-11-19T16:11:26.844Z,98599.03
2023-11-19T16:13:29.848Z,98604.78
2023-11-19T16:15:37.143Z,98597.22
2023-11-19T16:17:40.680Z,98594.53
2023-11-19T16:19:43.988Z,98608.47
2023-11-19T16:21:48.317Z,98600.47
2023-11-19T16:23:51.506Z,98603.53
2023-11-19T16:25:54.791Z,98604.78
2023-11-19T16:27:57.716Z,98607.63
2023-11-19T16:30:02.083Z,98614.41
2023-11-19T16:32:10.672Z,98612.13
2023-11-19T16:34:13.495Z,98594.53
2023-11-19T16:36:16.743Z,98612.97
2023-11-19T16:38:19.977Z,98602.09
2023-11-19T16:40:24.766Z,98606.41
2023-11-19T16:42:27.883Z,98610.31
2023-11-19T16:44:31.078Z,98607.66
2023-11-19T16:46:34.436Z,98614.81
2023-11-19T16:48:39.275Z,98612.34
2023-11-19T16:50:42.639Z,98608.44
2023-11-19T16:52:45.746Z,98610.91
2023-11-19T16:54:48.706Z,98616.06
2023-11-19T16:56:51.689Z,98620.34
2023-11-19T16:58:54.786Z,98620.75
2023-11-19T17:00:59.184Z,98616.25
2023-11-19T17:03:03.946Z,98617.47
2023-11-19T17:05:09.014Z,98621.56
2023-11-19T17:07:11.943Z,98628.72
2023-11-19T17:09:14.933Z,98617.47
2023-11-19T17:11:18.050Z,98635.47
2023-11-19T17:13:23.509Z,98622.78
2023-11-19T17:15:26.369Z,98627.69
2023-11-19T17:17:35.146Z,98635.91
2023-11-19T17:19:38.308Z,98632.59
2023-11-19T17:21:42.782Z,98623.59
2023-11-19T17:23:45.815Z,98622.59
2023-11-19T17:25:49.242Z,98614.00
2023-11-19T17:27:52.264Z,98609.28
2023-11-19T17:29:55.700Z,98616.22
2023-11-19T17:31:58.641Z,98620.13
2023-11-19T17:34:02.083Z,98626.47
2023-11-19T17:36:07.835Z,98627.69
2023-11-19T17:40:18.291Z,98623.59
2023-11-19T17:42:21.256Z,98618.69
2023-11-19T17:44:24.504Z,98616.88
2023-11-19T17:46:27.458Z,98617.06
2023-11-19T17:48:30.412Z,98620.28
2023-11-19T17:50:33.885Z,98615.63
2023-11-19T17:52:36.926Z,98605.16
2023-11-19T17:54:41.554Z,98613.75
2023-11-19T17:56:45.447Z,98609.06
2023-11-19T17:58:48.586Z,98605.56
2023-11-19T18:00:51.487Z,98608.25
2023-11-19T18:02:54.981Z,98606.81
2023-11-19T18:04:58.525Z,98612.16
2023-11-19T18:07:02.278Z,98614.81
2023-11-19T18:09:07.713Z,98606.41
2023-11-19T18:11:12.112Z,98612.13
2023-11-19T18:13:15.068Z,98617.06
2023-11-19T18:15:18.222Z,98609.47
2023-11-19T18:17:21.190Z,98614.19
2023-11-19T18:19:24.297Z,98615.00
2023-11-19T18:21:27.319Z,98606.59
2023-11-19T18:23:30.355Z,98604.16
2023-11-19T18:25:33.621Z,98604.34
2023-11-19T18:27:39.676Z,98606.41
2023-11-19T18:29:44.422Z,98609.84
2023-11-19T18:31:47.418Z,98612.34
2023-11-19T18:33:50.590Z,98608.41
2023-11-19T18:35:53.815Z,98607.00
2023-11-19T18:37:56.742Z,98604.97
2023-11-19T18:39:59.796Z,98605.56
2023-11-19T18:42:02.752Z,98593.09
2023-11-19T18:44:11.108Z,98593.88
2023-11-19T18:46:14.635Z,98597.97
2023-11-19T18:48:17.603Z,98603.69
2023-11-19T18:50:22.531Z,98601.25
2023-11-19T18:52:26.087Z,98602.66
2023-11-19T18:54:28.945Z,98575.38
2023-11-19T18:56:31.923Z,98587.28
2023-11-19T18:58:34.927Z,98600.59
2023-11-19T19:00:39.444Z,98596.94
2023-11-19T19:03:03.845Z,98598.81
2023-11-19T19:05:07.550Z,98604.91
2023-11-19T19:07:10.689Z,98617.19
2023-11-19T19:09:15.227Z,98630.69
2023-11-19T19:11:20.356Z,98622.13
2023-11-19T19:13:23.544Z,98610.25
2023-11-19T19:15:28.023Z,98609.81
2023-11-19T19:17:32.825Z,98610.03
2023-11-19T19:19:35.754Z,98605.97
2023-11-19T19:21:38.933Z,98597.16
2023-11-19T19:23:41.872Z,98604.72
2023-11-19T19:25:44.894Z,98608.00
2023-11-19T19:27:50.182Z,98609.25
2023-11-19T19:29:55.695Z,98614.56
2023-11-19T19:31:59.924Z,98604.53
2023-11-19T19:34:04.381Z,98615.97
2023-11-19T19:36:10.966Z,98612.50
2023-11-19T19:38:14.286Z,98620.69
2023-11-19T19:42:24.519Z,98615.78
2023-11-19T19:44:27.745Z,98615.19
2023-11-19T19:46:30.983Z,98616.63
2023-11-19T19:48:34.120Z,98607.16
2023-11-19T19:50:38.690Z,98620.06
2023-11-19T19:52:42.354Z,98619.47
2023-11-19T19:54:45.696Z,98615.97
2023-11-19T19:56:48.619Z,98610.25
2023-11-19T19:58:51.683Z,98613.53
2023-11-19T20:00:55.013Z,98615.78
2023-11-19T20:02:59.812Z,98619.69
2023-11-19T20:05:02.822Z,98613.13
2023-11-19T20:07:07.987Z,98610.66
2023-11-19T20:09:15.113Z,98605.94
2023-11-19T20:11:18.992Z,98614.34
2023-11-19T20:13:24.155Z,98610.03
2023-11-19T20:15:27.145Z,98609.19
2023-11-19T20:17:30.204Z,98612.69
2023-11-19T20:19:33.235Z,98621.91
2023-11-19T20:21:37.930Z,98618.25
2023-11-19T20:23:42.315Z,98623.13
2023-11-19T20:25:45.250Z,98624.38
2023-11-19T20:27:49.602Z,98619.25
2023-11-19T20:29:52.700Z,98614.13
2023-11-19T20:31:55.744Z,98614.53
2023-11-19T20:33:58.668Z,98619.03
2023-11-19T20:36:01.633Z,98618.63
2023-11-19T20:38:05.305Z,98612.03
2023-11-19T20:40:13.189Z,98609.19
2023-11-19T20:42:16.088Z,98611.03
2023-11-19T20:44:19.185Z,98604.47
2023-11-19T20:46:22.045Z,98617.38
2023-11-19T20:48:25.421Z,98616.53
2023-11-19T20:50:29.654Z,98621.88
2023-11-19T20:52:32.627Z,98618.41
2023-11-19T20:56:43.162Z,98607.53
2023-11-19T20:58:45.988Z,98608.53
2023-11-19T21:00:49.072Z,98605.47
2023-11-19T21:02:52.080Z,98595.22
2023-11-19T21:04:55.042Z,98605.69
2023-11-19T21:06:58.970Z,98604.66
2023-11-19T21:09:04.093Z,98610.59
2023-11-19T21:11:10.283Z,98606.09
2023-11-19T21:13:14.764Z,98614.47
2023-11-19T21:15:18.558Z,98608.75
2023-11-19T21:17:21.499Z,98612.88
2023-11-19T21:19:24.504Z,98615.94
2023-11-19T21:21:27.495Z,98618.41
2023-11-19T21:23:31.614Z,98627.63
2023-11-19T21:25:34.577Z,98619.03
2023-11-19T21:27:37.638Z,98624.53
2023-11-19T21:29:42.178Z,98618.16
2023-11-19T21:33:50.924Z,98619.59
2023-11-19T21:35:54.258Z,98619.56
2023-11-19T21:37:58.244Z,98623.47
2023-11-19T21:40:01.671Z,98615.84
2023-11-19T21:42:05.263Z,98605.41
2023-11-19T21:44:09.044Z,98612.13
2023-11-19T21:46:14.074Z,98612.75
2023-11-19T21:48:16.981Z,98614.81
2023-11-19T21:50:20.102Z,98622.41
2023-11-19T21:52:23.415Z,98625.47
2023-11-19T21:54:26.724Z,98617.25
2023-11-19T21:56:29.635Z,98613.94
2023-11-19T21:58:32.664Z,98616.84
2023-11-19T22:00:35.656Z,98613.13
2023-11-19T22:02:40.164Z,98612.50
2023-11-19T22:04:43.094Z,98612.28
2023-11-19T22:06:46.356Z,98612.88
2023-11-19T22:08:49.516Z,98616.75
2023-11-19T22:10:52.955Z,98609.59
2023-11-19T22:12:55.856Z,98614.31
2023-11-19T22:14:58.935Z,98611.66
2023-11-19T22:17:01.889Z,98618.81
2023-11-19T22:19:06.926Z,98612.44
2023-11-19T22:21:09.845Z,98614.69
2023-11-19T22:23:12.943Z,98610.19
2023-11-19T22:25:15.958Z,98616.94
2023-11-19T22:27:19.057Z,98616.31
2023-11-19T22:29:22.405Z,98610.38
2023-11-19T22:31:25.511Z,98611.81
2023-11-19T22:33:29.827Z,98611.00
2023-11-19T22:35:34.551Z,98605.66
2023-11-19T22:37:37.634Z,98603.22
2023-11-19T22:39:40.699Z,98607.31
2023-11-19T22:41:43.576Z,98611.22
2023-11-19T22:43:47.349Z,98614.47
2023-11-19T22:45:50.649Z,98603.00
2023-11-19T22:47:54.220Z,98608.13
2023-11-19T22:49:57.325Z,98602.81
2023-11-19T22:52:02.246Z,98602.19
2023-11-19T22:54:05.388Z,98611.00
2023-11-19T22:56:09.466Z,98610.81
2023-11-19T22:58:12.402Z,98608.94
2023-11-19T23:00:29.625Z,98605.47
2023-11-19T23:02:32.817Z,98606.88
2023-11-19T23:04:35.966Z,98612.19
2023-11-19T23:06:38.961Z,98618.38
2023-11-19T23:08:43.384Z,98616.94
2023-11-19T23:10:47.169Z,98612.19
2023-11-19T23:12:50.437Z,98613.84
2023-11-19T23:14:53.375Z,98614.69
2023-11-19T23:16:56.365Z,98610.97
2023-11-19T23:18:59.555Z,98613.19
2023-11-19T23:21:03.848Z,98611.97
2023-11-19T23:23:06.865Z,98609.06
2023-11-19T23:25:12.280Z,98606.03
2023-11-19T23:27:17.169Z,98608.31
2023-11-19T23:29:20.370Z,98612.63
2023-11-19T23:31:23.812Z,98610.75
2023-11-19T23:33:26.999Z,98603.56
2023-11-19T23:35:30.008Z,98605.63
2023-11-19T23:37:33.213Z,98604.19
2023-11-19T23:39:36.093Z,98600.75
2023-11-19T23:41:40.493Z,98606.69
2023-11-19T23:43:43.505Z,98612.63
2023-11-19T23:45:46.686Z,98605.28
2023-11-19T23:47:49.717Z,98612.88
2023-11-19T23:49:52.826Z,98608.53
2023-11-19T23:51:55.885Z,98613.25
2023-11-19T23:53:58.807Z,98611.41
2023-11-19T23:56:01.867Z,98608.94
2023-11-19T23:58:06.355Z,98608.97
